Time;durP1;ratioP1;P1;durP2;ratioP2;P2;SDS_P1;SDS_P2;PMS_P1;PMS_P2;Temp;Humidity;BMP_temperature;BMP_pressure;BME280_temperature;BME280_humidity;BME280_pressure;Samples;Min_cycle;Max_cycle;Signal;HPM_P1;HPM_P2
2023/08/21 00:00:53;;;;;;;6.18;2.70;;;;;;;25.06;49.21;99675.69;5131505;28;20098;-96
2023/08/21 00:03:41;;;;;;;3.90;1.63;;;;;;;24.93;49.23;99667.66;5069535;28;20120;-96
2023/08/21 00:06:07;;;;;;;2.50;2.05;;;;;;;24.81;49.29;99651.41;5040964;28;20029;-96
2023/08/21 00:08:37;;;;;;;4.00;2.00;;;;;;;25.19;49.19;99712.44;5020587;28;20045;-96
2023/08/21 00:11:04;;;;;;;3.50;1.95;;;;;;;24.79;49.29;99680.34;5035853;22;20064;-95
2023/08/21 00:13:29;;;;;;;3.92;1.67;;;;;;;25.36;49.58;99740.00;5075459;28;20040;-94
2023/08/21 00:16:24;;;;;;;3.38;2.42;;;;;;;25.45;50.17;99755.50;5067152;28;20063;-96
2023/08/21 00:18:53;;;;;;;3.85;1.90;;;;;;;25.30;50.63;99729.66;5056129;28;20045;-94
2023/08/21 00:21:20;;;;;;;5.47;2.45;;;;;;;25.41;50.20;99735.13;5054017;28;20191;-96
2023/08/21 00:23:46;;;;;;;3.22;1.70;;;;;;;25.34;49.68;99753.59;5056134;28;20508;-96
2023/08/21 00:26:14;;;;;;;3.47;2.05;;;;;;;25.08;50.03;99711.50;5056082;28;20033;-95
2023/08/21 00:28:39;;;;;;;2.80;2.30;;;;;;;25.39;50.37;99761.34;5055480;28;20033;-96
2023/08/21 00:31:06;;;;;;;2.00;1.02;;;;;;;25.23;50.30;99733.78;5053442;28;20097;-96
2023/08/21 00:33:32;;;;;;;3.08;2.03;;;;;;;25.35;50.52;99766.13;5055415;28;20036;-96
2023/08/21 00:35:58;;;;;;;3.20;1.83;;;;;;;25.40;50.49;99773.03;5055347;28;20032;-95
2023/08/21 00:38:44;;;;;;;2.10;1.52;;;;;;;25.32;50.32;99779.88;5062434;28;20035;-96
2023/08/21 00:41:10;;;;;;;2.20;1.60;;;;;;;25.24;50.44;99754.38;5019265;28;20117;-96
2023/08/21 00:43:36;;;;;;;4.03;1.38;;;;;;;25.10;51.09;99736.53;5072928;28;20505;-96
2023/08/21 00:46:02;;;;;;;4.28;2.28;;;;;;;24.98;51.63;99731.09;5017772;28;20033;-94
2023/08/21 00:48:28;;;;;;;4.50;2.20;;;;;;;25.28;51.69;99767.53;5034912;28;20041;-92
2023/08/21 00:50:54;;;;;;;1.70;1.23;;;;;;;25.00;51.91;99722.88;5035510;28;20521;-96
2023/08/21 00:53:23;;;;;;;4.10;2.03;;;;;;;24.94;51.38;99728.72;5054649;28;20036;-95
2023/08/21 00:55:50;;;;;;;3.05;1.80;;;;;;;25.10;51.12;99760.81;5054140;28;20040;-94
2023/08/21 00:58:19;;;;;;;4.32;2.92;;;;;;;24.73;51.41;99732.06;5025014;28;20041;-95
2023/08/21 01:00:51;;;;;;;1.40;1.30;;;;;;;24.76;51.75;99741.72;5054144;28;20041;-96
2023/08/21 01:03:20;;;;;;;3.33;1.50;;;;;;;24.90;51.70;99778.47;5047337;28;20071;-96
2023/08/21 01:05:45;;;;;;;4.32;2.10;;;;;;;24.58;51.44;99725.94;5034961;28;20029;-96
2023/08/21 01:08:26;;;;;;;4.30;2.53;;;;;;;24.93;51.62;99779.16;5033516;28;20029;-93
2023/08/21 01:11:13;;;;;;;6.43;3.15;;;;;;;25.01;51.17;99773.19;5035270;28;20041;-96
2023/08/21 01:14:10;;;;;;;4.15;2.53;;;;;;;24.77;51.51;99765.03;5077212;28;20035;-96
2023/08/21 01:17:07;;;;;;;14.68;2.45;;;;;;;24.49;52.53;99775.94;5072051;28;20025;-96
2023/08/21 01:19:43;;;;;;;4.20;2.10;;;;;;;23.82;52.68;99702.56;5089305;28;20039;-96
2023/08/21 01:22:21;;;;;;;4.10;2.13;;;;;;;24.35;52.56;99773.41;5068253;28;20029;-96
2023/08/21 01:25:33;;;;;;;3.22;1.67;;;;;;;24.25;52.68;99780.41;5054311;28;20048;-96
2023/08/21 01:28:24;;;;;;;3.58;2.25;;;;;;;23.81;53.36;99712.47;5064438;28;20037;-96
2023/08/21 01:30:53;;;;;;;3.67;1.92;;;;;;;23.95;53.60;99743.88;5033780;28;20099;-92
2023/08/21 01:36:31;;;;;;;3.75;2.58;;;;;;;23.71;53.33;99716.78;5025001;28;20039;-96
2023/08/21 01:39:15;;;;;;;6.03;2.78;;;;;;;23.98;53.48;99746.34;5027068;28;20076;-95
2023/08/21 01:41:42;;;;;;;5.90;2.13;;;;;;;23.87;53.93;99754.31;5017396;28;20061;-96
2023/08/21 01:56:59;;;;;;;3.00;2.08;;;;;;;23.51;54.19;99721.72;5509866;22;20024;-96
2023/08/21 02:09:32;;;;;;;2.22;1.27;;;;;;;23.43;53.98;99713.28;5189989;23;20060;-90
2023/08/21 02:11:58;;;;;;;2.25;1.85;;;;;;;23.80;53.71;99744.91;4995095;28;20124;-94
2023/08/21 02:14:23;;;;;;;4.20;2.10;;;;;;;23.50;53.78;99743.38;5007897;28;20025;-96
2023/08/21 02:16:49;;;;;;;2.67;2.25;;;;;;;23.51;54.18;99742.38;5009967;28;20021;-94
2023/08/21 02:19:15;;;;;;;3.00;1.77;;;;;;;23.57;54.51;99748.22;5010695;28;20041;-91
2023/08/21 02:21:40;;;;;;;2.13;1.63;;;;;;;23.57;54.62;99748.22;4992707;28;20025;-91
2023/08/21 02:24:06;;;;;;;2.90;2.22;;;;;;;23.64;54.45;99756.72;5025656;28;20025;-91
2023/08/21 02:26:31;;;;;;;4.00;1.73;;;;;;;23.74;54.64;99784.75;5030424;28;20483;-91
2023/08/21 02:28:57;;;;;;;3.13;1.83;;;;;;;23.77;54.74;99776.47;5028477;28;20083;-91
2023/08/21 02:31:23;;;;;;;1.80;1.50;;;;;;;23.73;54.39;99774.94;5029861;28;20035;-91
2023/08/21 02:33:49;;;;;;;3.13;1.92;;;;;;;23.53;54.65;99778.16;5011858;28;20041;-91
2023/08/21 02:36:16;;;;;;;2.58;1.75;;;;;;;23.52;54.94;99776.41;5029695;28;20069;-92
2023/08/21 02:38:43;;;;;;;2.50;1.73;;;;;;;23.38;55.05;99764.75;5010480;28;20153;-93
2023/08/21 02:41:08;;;;;;;4.20;2.17;;;;;;;23.05;55.75;99722.09;5029603;28;20043;-91
2023/08/21 02:43:34;;;;;;;3.95;1.63;;;;;;;23.38;55.36;99770.13;5030945;28;20124;-96
2023/08/21 02:46:01;;;;;;;3.00;1.38;;;;;;;23.32;55.72;99775.06;5014261;28;20048;-96
2023/08/21 02:48:26;;;;;;;3.58;2.25;;;;;;;23.20;55.63;99765.97;5010873;28;20029;-94
2023/08/21 02:50:52;;;;;;;2.10;1.45;;;;;;;22.94;55.48;99738.94;4993473;28;20038;-96
2023/08/21 02:53:17;;;;;;;2.42;1.55;;;;;;;23.29;54.70;99784.19;4994531;28;20049;-95
2023/08/21 02:55:44;;;;;;;2.72;1.90;;;;;;;22.92;55.61;99740.00;4995015;28;20030;-96
2023/08/21 02:58:28;;;;;;;4.57;3.28;;;;;;;22.98;56.13;99761.13;5001097;28;20029;-96
2023/08/21 03:00:57;;;;;;;3.90;1.88;;;;;;;22.67;56.44;99736.22;5011892;28;20034;-93
2023/08/21 03:03:23;;;;;;;2.78;2.10;;;;;;;22.73;56.83;99741.22;5054810;28;20935;-96
2023/08/21 03:05:51;;;;;;;2.95;1.25;;;;;;;22.69;56.62;99729.78;5009388;28;20034;-96
2023/08/21 03:08:17;;;;;;;5.70;1.90;;;;;;;22.83;56.66;99739.66;4980098;28;20045;-96
2023/08/21 03:10:44;;;;;;;3.53;2.00;;;;;;;22.96;56.86;99761.22;4984903;28;20054;-92
2023/08/21 03:13:10;;;;;;;4.30;1.70;;;;;;;22.76;57.03;99729.41;5002535;28;20084;-95
2023/08/21 03:15:35;;;;;;;2.83;2.28;;;;;;;23.03;57.13;99781.38;4996249;28;20030;-93
2023/08/21 03:18:02;;;;;;;4.18;2.30;;;;;;;23.03;56.96;99769.75;4997244;28;20030;-96
2023/08/21 03:20:28;;;;;;;2.63;1.98;;;;;;;22.79;57.28;99739.94;4982767;28;20132;-95
2023/08/21 03:22:54;;;;;;;3.30;2.38;;;;;;;22.99;57.42;99777.16;5002110;28;20806;-94
2023/08/21 03:25:19;;;;;;;4.72;2.65;;;;;;;22.78;56.94;99720.25;4996802;28;20038;-90
2023/08/21 03:27:49;;;;;;;3.75;2.47;;;;;;;22.94;57.22;99755.09;5016202;28;20470;-91
2023/08/21 03:30:15;;;;;;;2.63;1.27;;;;;;;22.95;56.85;99751.41;5014741;28;20030;-96
2023/08/21 03:32:42;;;;;;;5.15;2.65;;;;;;;22.60;57.12;99703.50;4995443;28;20129;-94
2023/08/21 03:35:12;;;;;;;3.28;2.70;;;;;;;22.96;56.98;99757.69;4995854;28;20096;-94
2023/08/21 03:37:40;;;;;;;4.10;1.98;;;;;;;22.71;57.12;99719.78;4996215;28;20428;-92
2023/08/21 03:40:06;;;;;;;2.83;1.63;;;;;;;22.93;57.12;99747.13;5012969;28;20034;-92
2023/08/21 03:42:31;;;;;;;2.65;1.67;;;;;;;22.83;57.31;99733.38;5014443;28;20046;-92
2023/08/21 03:44:57;;;;;;;3.30;1.95;;;;;;;22.86;57.35;99741.25;5006148;28;20040;-91
2023/08/21 03:47:22;;;;;;;2.78;1.95;;;;;;;22.86;57.27;99739.44;5032082;28;20029;-91
2023/08/21 03:49:48;;;;;;;3.00;2.03;;;;;;;23.03;56.39;99746.41;5032360;28;20409;-92
2023/08/21 03:52:13;;;;;;;2.35;1.40;;;;;;;23.11;56.56;99777.34;5031593;28;20056;-92
2023/08/21 03:54:41;;;;;;;2.60;1.83;;;;;;;23.02;56.14;99766.19;5029794;28;20416;-94
2023/08/21 03:57:07;;;;;;;2.03;1.63;;;;;;;23.11;55.75;99767.47;5006007;28;20512;-94
2023/08/21 03:59:32;;;;;;;2.88;1.80;;;;;;;23.05;55.54;99746.31;4994843;28;20061;-93
2023/08/21 04:02:00;;;;;;;3.83;1.67;;;;;;;23.10;56.00;99765.72;5015089;28;20545;-93
2023/08/21 04:04:26;;;;;;;19.15;3.40;;;;;;;23.04;55.46;99769.63;4998432;28;20484;-92
2023/08/21 04:06:51;;;;;;;5.80;3.45;;;;;;;22.98;55.35;99761.97;5013368;28;20096;-90
2023/08/21 04:09:18;;;;;;;3.30;1.80;;;;;;;23.03;55.79;99758.97;4995305;28;20224;-95
2023/08/21 04:11:44;;;;;;;2.05;1.70;;;;;;;23.37;55.92;99783.69;4995684;28;20099;-93
2023/08/21 04:14:09;;;;;;;4.30;2.20;;;;;;;23.53;55.19;99800.53;5013977;28;20496;-95
2023/08/21 04:16:35;;;;;;;20.67;3.03;;;;;;;23.46;54.65;99766.06;4995061;28;20041;-96
2023/08/21 04:19:01;;;;;;;4.68;1.95;;;;;;;23.37;54.58;99789.06;4995740;28;20030;-96
2023/08/21 04:21:28;;;;;;;3.28;1.98;;;;;;;23.55;54.51;99786.97;5011687;28;20460;-91
2023/08/21 04:23:53;;;;;;;3.50;2.38;;;;;;;23.34;54.94;99747.09;5015934;28;20026;-92
2023/08/21 04:26:19;;;;;;;5.63;1.63;;;;;;;23.69;54.27;99778.81;5031617;28;20094;-95
2023/08/21 04:28:46;;;;;;;2.97;1.98;;;;;;;23.74;54.11;99770.41;5025199;28;20095;-92
2023/08/21 04:31:12;;;;;;;2.78;1.85;;;;;;;23.99;53.66;99785.81;5014968;28;20030;-93
2023/08/21 04:33:38;;;;;;;2.92;2.20;;;;;;;24.17;52.93;99802.50;4994123;28;20042;-95
2023/08/21 04:36:04;;;;;;;2.60;1.75;;;;;;;24.04;53.49;99780.09;4993742;28;20125;-91
2023/08/21 04:38:29;;;;;;;2.35;1.52;;;;;;;24.18;52.76;99784.50;5012210;28;20523;-92
2023/08/21 04:40:55;;;;;;;4.00;2.13;;;;;;;23.93;52.90;99729.66;5009070;28;20041;-93
2023/08/21 04:43:20;;;;;;;6.25;2.47;;;;;;;24.31;52.87;99771.88;5032716;28;20491;-92
2023/08/21 04:45:52;;;;;;;3.38;2.05;;;;;;;24.22;52.42;99759.06;5014676;28;20546;-95
2023/08/21 04:48:19;;;;;;;4.40;2.88;;;;;;;24.59;52.74;99805.88;5007728;28;20030;-92
2023/08/21 04:50:46;;;;;;;4.97;3.03;;;;;;;24.39;52.38;99765.94;5042152;28;20195;-96
2023/08/21 04:53:14;;;;;;;3.00;1.70;;;;;;;24.56;52.51;99775.50;5016198;28;20034;-93
2023/08/21 04:55:40;;;;;;;5.03;2.40;;;;;;;24.65;52.42;99777.56;5005619;28;20040;-94
2023/08/21 04:58:09;;;;;;;3.95;2.05;;;;;;;24.90;52.68;99809.03;5008339;28;20041;-93
2023/08/21 05:00:35;;;;;;;11.00;3.10;;;;;;;24.62;52.45;99757.09;4998055;28;20029;-93
2023/08/21 05:03:00;;;;;;;13.13;3.50;;;;;;;24.86;52.17;99779.72;5000252;28;20416;-93
2023/08/21 05:05:26;;;;;;;11.88;3.65;;;;;;;25.02;51.83;99774.88;4998182;28;20040;-93
2023/08/21 05:07:54;;;;;;;5.47;2.65;;;;;;;25.17;51.35;99781.84;5001396;28;20488;-96
2023/08/21 05:10:20;;;;;;;4.78;2.53;;;;;;;25.05;51.12;99769.25;4998823;28;20053;-92
2023/08/21 05:12:46;;;;;;;6.60;2.25;;;;;;;25.45;50.33;99793.28;5017235;28;20105;-92
2023/08/21 05:15:11;;;;;;;4.78;2.22;;;;;;;25.62;49.75;99786.63;4996508;28;20095;-91
2023/08/21 05:17:37;;;;;;;5.15;2.60;;;;;;;25.88;48.79;99799.97;4999277;28;20030;-89
2023/08/21 05:20:03;;;;;;;4.22;2.42;;;;;;;25.80;48.80;99776.25;5021505;28;20030;-91
2023/08/21 05:22:28;;;;;;;7.60;2.20;;;;;;;26.18;48.58;99812.09;5000638;28;20034;-91
2023/08/21 05:24:54;;;;;;;7.68;3.38;;;;;;;26.25;48.44;99787.16;5011905;28;20036;-90
2023/08/21 05:27:19;;;;;;;4.88;2.63;;;;;;;26.19;48.19;99757.06;5011865;28;20035;-89
2023/08/21 05:29:45;;;;;;;13.02;3.65;;;;;;;26.34;47.64;99763.09;5016178;28;20045;-89
2023/08/21 05:32:11;;;;;;;4.00;1.77;;;;;;;26.58;46.31;99790.84;5011099;28;20494;-90
2023/08/21 05:34:37;;;;;;;3.65;2.13;;;;;;;26.86;46.14;99823.81;4992900;28;20116;-90
2023/08/21 05:37:02;;;;;;;4.43;2.13;;;;;;;26.98;46.05;99806.59;4992088;28;20046;-88
2023/08/21 05:39:28;;;;;;;4.22;2.20;;;;;;;26.84;46.23;99751.91;5009745;28;20038;-90
2023/08/21 05:41:54;;;;;;;3.05;1.88;;;;;;;27.32;45.46;99784.88;5009963;28;20032;-90
2023/08/21 05:44:19;;;;;;;5.50;2.88;;;;;;;27.68;45.43;99808.97;5016362;28;20033;-90
2023/08/21 05:46:45;;;;;;;9.95;1.73;;;;;;;27.74;44.99;99786.78;5029403;28;20065;-86
2023/08/21 05:49:10;;;;;;;3.22;2.30;;;;;;;27.49;45.43;99736.56;5014475;28;20025;-90
2023/08/21 05:51:36;;;;;;;4.03;2.38;;;;;;;27.78;44.54;99720.50;5010710;28;20034;-89
2023/08/21 05:54:01;;;;;;;3.25;2.38;;;;;;;28.38;44.28;99795.78;5008503;28;20042;-89
2023/08/21 05:56:26;;;;;;;4.80;2.20;;;;;;;28.80;43.85;99803.84;5009207;28;20460;-88
2023/08/21 05:58:52;;;;;;;3.67;2.08;;;;;;;28.79;41.17;99772.25;5019445;28;20033;-93
2023/08/21 06:01:21;;;;;;;4.30;2.42;;;;;;;28.89;42.12;99804.88;4995441;28;20108;-91
2023/08/21 06:03:46;;;;;;;2.92;1.55;;;;;;;28.63;42.38;99747.53;5000302;28;20685;-92
2023/08/21 06:06:11;;;;;;;7.40;3.30;;;;;;;29.32;42.40;99809.16;5015219;28;20150;-93
2023/08/21 06:08:37;;;;;;;3.25;2.33;;;;;;;29.03;42.24;99762.91;5004048;28;20407;-92
2023/08/21 06:11:02;;;;;;;5.50;2.92;;;;;;;29.34;43.77;99798.16;5012449;28;20042;-93
2023/08/21 06:13:28;;;;;;;3.70;1.98;;;;;;;29.42;41.50;99774.69;5009921;28;20100;-93
2023/08/21 06:15:54;;;;;;;4.80;2.47;;;;;;;29.42;41.55;99782.84;4992706;28;20029;-93
2023/08/21 06:18:19;;;;;;;3.92;2.92;;;;;;;29.73;40.87;99790.00;5010465;28;20665;-93
2023/08/21 06:20:45;;;;;;;2.03;1.55;;;;;;;29.95;40.26;99797.00;4993267;28;20037;-93
2023/08/21 06:23:12;;;;;;;10.23;3.83;;;;;;;30.11;39.93;99780.94;4975663;28;20554;-91
2023/08/21 06:25:38;;;;;;;11.82;3.00;;;;;;;30.60;38.05;99793.53;5010463;28;20033;-93
2023/08/21 06:28:04;;;;;;;3.72;1.88;;;;;;;30.96;37.72;99821.75;5009900;28;20034;-94
2023/08/21 06:30:29;;;;;;;3.00;1.98;;;;;;;31.01;36.44;99815.88;5021204;28;20037;-93
2023/08/21 06:32:56;;;;;;;2.75;1.83;;;;;;;31.46;35.93;99828.63;4993749;28;20026;-93
2023/08/21 06:35:21;;;;;;;3.85;2.08;;;;;;;31.34;35.95;99811.66;5008231;28;20025;-94
2023/08/21 06:37:47;;;;;;;3.85;2.10;;;;;;;31.62;35.66;99778.03;4989516;28;20030;-93
2023/08/21 06:40:12;;;;;;;2.35;1.63;;;;;;;32.05;33.42;99787.22;4990537;28;20041;-91
2023/08/21 06:42:38;;;;;;;1.77;1.48;;;;;;;32.19;33.77;99789.41;5008118;28;20022;-91
2023/08/21 06:45:05;;;;;;;3.58;1.95;;;;;;;32.50;32.70;99821.66;5008044;28;20484;-89
2023/08/21 06:47:30;;;;;;;3.17;1.70;;;;;;;32.44;33.49;99801.34;4989788;28;20038;-91
2023/08/21 06:49:56;;;;;;;2.45;1.33;;;;;;;32.80;32.29;99803.06;5009004;28;20437;-91
2023/08/21 06:52:22;;;;;;;4.65;2.33;;;;;;;33.34;31.79;99802.75;4995564;28;20403;-93
2023/08/21 06:54:47;;;;;;;3.42;1.45;;;;;;;33.29;31.96;99826.97;5000693;28;20068;-93
2023/08/21 06:57:13;;;;;;;1.83;1.42;;;;;;;32.99;31.41;99800.06;4992069;28;20036;-91
2023/08/21 06:59:38;;;;;;;2.97;1.63;;;;;;;32.81;31.93;99772.88;4992992;28;20034;-92
2023/08/21 07:02:04;;;;;;;2.20;1.48;;;;;;;33.30;31.98;99813.13;5010266;28;20034;-93
2023/08/21 07:04:29;;;;;;;1.80;1.17;;;;;;;33.47;31.22;99805.81;5009478;28;20137;-93
2023/08/21 07:06:55;;;;;;;2.92;1.67;;;;;;;33.46;31.80;99819.66;4992907;28;20034;-91
2023/08/21 07:09:24;;;;;;;3.20;1.70;;;;;;;33.40;30.79;99812.13;4993390;28;20644;-94
2023/08/21 07:11:49;;;;;;;3.15;1.98;;;;;;;33.61;31.41;99820.72;4992645;28;20045;-93
2023/08/21 07:14:16;;;;;;;6.85;1.52;;;;;;;33.60;30.03;99816.28;5000332;28;20042;-96
2023/08/21 07:16:48;;;;;;;2.40;1.33;;;;;;;33.42;31.89;99807.38;5014402;28;20036;-96
2023/08/21 07:19:16;;;;;;;3.17;2.00;;;;;;;33.55;30.68;99794.91;4999841;28;20057;-96
2023/08/21 07:21:45;;;;;;;3.75;1.83;;;;;;;34.27;30.63;99773.38;5000649;28;20125;-94
2023/08/21 07:24:11;;;;;;;3.45;1.45;;;;;;;34.14;29.47;99771.13;4996096;28;20050;-96
2023/08/21 07:26:37;;;;;;;3.20;1.38;;;;;;;34.19;29.92;99777.81;4997206;28;20037;-96
2023/08/21 07:29:04;;;;;;;2.88;1.50;;;;;;;34.24;29.65;99742.56;4995487;28;20416;-95
2023/08/21 07:31:32;;;;;;;2.00;1.33;;;;;;;34.55;30.07;99774.63;5000164;28;20060;-96
2023/08/21 07:33:57;;;;;;;2.70;1.75;;;;;;;34.81;29.24;99765.31;5001989;28;20115;-95
2023/08/21 07:36:23;;;;;;;2.00;1.15;;;;;;;34.66;28.67;99726.84;5011630;28;20037;-96
2023/08/21 07:38:51;;;;;;;3.38;2.22;;;;;;;35.04;27.66;99770.84;5017997;28;20095;-96
2023/08/21 07:41:19;;;;;;;2.83;1.38;;;;;;;35.09;28.21;99804.03;5024459;28;21184;-96
2023/08/21 07:43:51;;;;;;;4.15;1.77;;;;;;;34.86;27.73;99726.44;5021413;28;20041;-95
2023/08/21 07:46:18;;;;;;;4.68;2.15;;;;;;;34.60;26.99;99727.56;5026431;28;20036;-96
2023/08/21 07:48:49;;;;;;;1.83;1.00;;;;;;;34.66;27.61;99724.09;5028875;28;20123;-95
2023/08/21 07:51:15;;;;;;;1.88;1.15;;;;;;;35.23;28.41;99768.69;5028935;28;20048;-96
2023/08/21 07:53:40;;;;;;;8.85;2.25;;;;;;;35.67;27.39;99732.38;5017343;28;20033;-96
2023/08/21 07:56:06;;;;;;;4.65;2.00;;;;;;;35.72;26.77;99716.22;5018657;28;20051;-96
2023/08/21 07:58:35;;;;;;;1.27;1.00;;;;;;;35.70;25.01;99703.72;5040044;28;20041;-96
2023/08/21 08:01:04;;;;;;;2.22;1.33;;;;;;;35.98;24.99;99761.63;5034241;28;20521;-96
2023/08/21 08:03:36;;;;;;;2.90;1.48;;;;;;;35.88;25.89;99715.22;5049544;28;20095;-96
2023/08/21 08:06:05;;;;;;;13.02;1.65;;;;;;;36.28;25.22;99712.25;5023440;28;20031;-96
2023/08/21 08:08:33;;;;;;;2.55;2.20;;;;;;;36.28;26.04;99720.50;5031826;28;20036;-96
2023/08/21 08:11:03;;;;;;;2.28;1.17;;;;;;;36.87;25.36;99745.16;5059255;23;20058;-90
2023/08/21 08:13:30;;;;;;;3.00;1.58;;;;;;;37.02;25.12;99786.34;4996504;28;20038;-95
2023/08/21 08:15:55;;;;;;;1.98;1.50;;;;;;;37.52;23.84;99794.72;4996220;28;20036;-94
2023/08/21 08:18:28;;;;;;;2.92;1.17;;;;;;;37.50;22.95;99738.22;4995896;28;20030;-96
2023/08/21 08:24:17;;;;;;;2.10;1.17;;;;;;;38.00;24.30;99785.03;5014804;28;20049;-96
2023/08/21 08:27:06;;;;;;;6.53;1.83;;;;;;;37.93;24.18;99766.56;4996961;28;20065;-96
2023/08/21 08:29:36;;;;;;;2.00;1.42;;;;;;;36.92;23.60;99712.47;5004166;28;20034;-96
2023/08/21 08:32:01;;;;;;;2.35;1.73;;;;;;;37.01;23.47;99751.66;4999546;28;20120;-94
2023/08/21 08:34:27;;;;;;;4.25;1.65;;;;;;;36.94;24.07;99767.22;4996999;28;20485;-93
2023/08/21 08:36:56;;;;;;;4.68;2.38;;;;;;;37.34;24.24;99764.94;4996077;28;20033;-92
2023/08/21 08:42:52;;;;;;;2.28;1.10;;;;;;;38.06;23.44;99740.16;5013892;28;20048;-92
2023/08/21 08:45:32;;;;;;;1.65;1.00;;;;;;;38.17;24.67;99734.13;5013364;28;20026;-95
2023/08/21 08:48:01;;;;;;;3.53;1.23;;;;;;;37.95;23.34;99736.91;4997546;28;20124;-94
2023/08/21 08:50:32;;;;;;;3.85;1.25;;;;;;;38.25;23.63;99728.47;4995702;28;20061;-95
2023/08/21 08:53:30;;;;;;;2.33;1.20;;;;;;;38.68;22.43;99747.59;4996324;28;20479;-95
2023/08/21 08:56:03;;;;;;;2.35;1.40;;;;;;;38.82;22.74;99744.84;4997726;28;20113;-96
2023/08/21 08:58:48;;;;;;;2.97;1.42;;;;;;;38.59;22.49;99732.25;5009739;28;20103;-96
2023/08/21 09:01:33;;;;;;;1.95;1.63;;;;;;;37.94;22.95;99706.84;5005512;28;20121;-96
2023/08/21 09:03:58;;;;;;;1.95;1.40;;;;;;;37.87;23.27;99711.47;5000126;28;20034;-96
2023/08/21 09:06:25;;;;;;;9.52;2.20;;;;;;;38.07;23.06;99714.34;5012925;28;20487;-93
2023/08/21 09:08:55;;;;;;;1.48;1.20;;;;;;;38.48;22.80;99730.94;5013440;28;20026;-96
2023/08/21 09:11:22;;;;;;;4.20;1.55;;;;;;;38.19;22.57;99717.41;5011378;28;20056;-93
2023/08/21 09:13:49;;;;;;;3.72;1.55;;;;;;;38.40;22.59;99692.50;5016798;28;20030;-96
2023/08/21 09:16:23;;;;;;;1.95;1.30;;;;;;;38.22;23.00;99717.88;4993833;28;20428;-96
2023/08/21 09:18:58;;;;;;;2.40;1.60;;;;;;;38.10;23.01;99712.03;4981751;28;20041;-96
2023/08/21 09:21:35;;;;;;;6.55;1.63;;;;;;;38.34;22.74;99696.09;4985250;28;20528;-96
2023/08/21 09:24:06;;;;;;;5.18;1.98;;;;;;;38.26;23.02;99691.59;4974497;28;20090;-96
2023/08/21 09:26:37;;;;;;;3.03;1.77;;;;;;;38.09;23.37;99688.31;5007073;28;20064;-96
2023/08/21 09:29:05;;;;;;;6.03;2.30;;;;;;;38.53;23.47;99688.13;4997833;28;20037;-96
2023/08/21 09:31:33;;;;;;;2.67;1.25;;;;;;;38.45;22.56;99683.63;5053695;23;20061;-95
2023/08/21 09:34:36;;;;;;;1.92;1.20;;;;;;;38.60;23.71;99686.25;5032207;28;20038;-96
2023/08/21 09:37:10;;;;;;;2.50;1.17;;;;;;;38.08;23.31;99683.00;5032882;28;20055;-93
2023/08/21 09:39:42;;;;;;;2.05;1.58;;;;;;;37.92;22.91;99675.91;5038526;28;20041;-96
2023/08/21 09:42:08;;;;;;;7.43;1.40;;;;;;;38.17;22.83;99672.72;5014762;28;20040;-96
2023/08/21 09:44:54;;;;;;;2.47;1.67;;;;;;;38.26;22.10;99677.00;5060852;28;20036;-96
2023/08/21 09:47:33;;;;;;;1.85;1.08;;;;;;;38.45;21.70;99675.38;5140860;22;20054;-96
2023/08/21 09:50:55;;;;;;;2.30;1.63;;;;;;;38.62;22.03;99681.38;4972997;28;20046;-97
2023/08/21 09:53:24;;;;;;;1.70;1.20;;;;;;;38.65;22.06;99689.25;5024023;28;20057;-93
2023/08/21 09:55:55;;;;;;;2.58;1.73;;;;;;;37.80;22.47;99664.63;5017585;28;20142;-94
2023/08/21 09:58:27;;;;;;;2.50;1.65;;;;;;;37.85;22.55;99675.88;4995216;28;20038;-96
2023/08/21 10:03:59;;;;;;;1.80;1.38;;;;;;;38.50;22.55;99667.38;5054166;28;20174;-96
2023/08/21 10:12:58;;;;;;;2.40;1.35;;;;;;;38.05;22.61;99604.44;5628757;22;20082;-92
2023/08/21 10:19:10;;;;;;;1.85;1.20;;;;;;;38.14;21.82;99611.47;5340426;22;20056;-94
2023/08/21 10:21:39;;;;;;;2.38;1.02;;;;;;;38.14;21.95;99651.91;5193774;23;20058;-96
2023/08/21 10:24:08;;;;;;;2.38;1.52;;;;;;;37.35;21.49;99609.03;5022817;28;20046;-94
2023/08/21 10:26:44;;;;;;;3.00;1.45;;;;;;;37.18;21.43;99598.28;4983171;28;20038;-96
2023/08/21 10:29:09;;;;;;;5.68;1.65;;;;;;;37.13;22.21;99599.97;5021344;28;20053;-93
2023/08/21 10:31:40;;;;;;;7.93;1.73;;;;;;;37.09;22.42;99608.59;5018706;28;20038;-94
2023/08/21 10:34:08;;;;;;;2.95;1.63;;;;;;;37.22;22.08;99637.25;5018173;28;20060;-95
2023/08/21 10:36:59;;;;;;;3.00;1.73;;;;;;;37.02;21.68;99595.84;5010279;28;20594;-95
2023/08/21 10:39:26;;;;;;;2.95;1.48;;;;;;;37.36;21.88;99621.75;5009230;28;20500;-91
2023/08/21 10:42:13;;;;;;;3.05;1.15;;;;;;;37.42;22.05;99605.28;5016755;28;20599;-89
2023/08/21 10:44:42;;;;;;;1.48;1.30;;;;;;;37.48;22.17;99641.28;4994695;28;20030;-91
2023/08/21 10:47:14;;;;;;;1.70;1.15;;;;;;;37.55;22.03;99639.44;5004290;28;20061;-96
2023/08/21 10:49:57;;;;;;;3.38;1.67;;;;;;;37.66;22.19;99602.28;4990934;28;20034;-96
2023/08/21 10:52:44;;;;;;;2.13;1.90;;;;;;;38.11;22.50;99624.78;5032936;23;20127;-91
2023/08/21 10:55:11;;;;;;;1.70;1.05;;;;;;;38.45;21.25;99615.66;4986265;28;20064;-91
2023/08/21 10:57:38;;;;;;;2.50;1.40;;;;;;;38.72;20.75;99599.19;5012992;28;20030;-92
2023/08/21 11:00:27;;;;;;;2.45;1.05;;;;;;;39.13;21.01;99611.13;5003292;28;20048;-96
2023/08/21 11:02:56;;;;;;;2.13;1.17;;;;;;;38.56;21.65;99589.41;5013218;28;20048;-96
2023/08/21 11:05:21;;;;;;;9.70;2.00;;;;;;;38.04;22.15;99623.91;5018212;28;20478;-95
2023/08/21 11:07:48;;;;;;;1.65;1.00;;;;;;;37.43;21.96;99584.13;5015699;28;20065;-90
2023/08/21 11:10:24;;;;;;;4.43;1.65;;;;;;;36.93;22.07;99584.13;5030305;28;20431;-92
2023/08/21 11:12:57;;;;;;;2.33;1.55;;;;;;;37.31;22.24;99615.97;4998520;28;20028;-95
2023/08/21 11:15:24;;;;;;;2.05;1.00;;;;;;;37.40;22.21;99598.28;4995624;28;20041;-94
2023/08/21 11:18:02;;;;;;;2.05;1.15;;;;;;;37.41;22.29;99550.47;4994558;28;20038;-94
2023/08/21 11:20:34;;;;;;;3.40;1.88;;;;;;;37.34;22.49;99536.69;4995717;28;20120;-91
2023/08/21 11:23:09;;;;;;;4.20;1.27;;;;;;;37.73;22.77;99556.44;5012292;28;20030;-95
2023/08/21 11:25:46;;;;;;;2.40;1.25;;;;;;;37.87;20.56;99582.94;5014106;28;20050;-94
2023/08/21 11:28:16;;;;;;;4.15;2.47;;;;;;;38.17;20.59;99568.09;4982168;28;20048;-91
2023/08/21 11:30:43;;;;;;;4.47;1.33;;;;;;;38.56;20.36;99572.88;5000534;28;20436;-92
2023/08/21 11:33:12;;;;;;;1.73;1.17;;;;;;;38.68;19.47;99567.59;5014645;28;20116;-93
2023/08/21 11:35:39;;;;;;;1.52;1.05;;;;;;;38.91;20.72;99569.94;4996006;28;20064;-93
2023/08/21 11:38:05;;;;;;;2.50;1.15;;;;;;;39.32;20.51;99592.91;5013808;28;20070;-93
2023/08/21 11:40:34;;;;;;;1.42;1.20;;;;;;;38.63;20.80;99578.41;5013298;28;20463;-94
2023/08/21 11:43:05;;;;;;;3.28;1.90;;;;;;;38.28;21.49;99614.28;5013597;28;20117;-96
2023/08/21 11:45:30;;;;;;;1.90;1.08;;;;;;;37.86;20.95;99600.50;4999616;28;20033;-93
2023/08/21 11:50:25;;;;;;;2.25;1.10;;;;;;;37.52;22.06;99562.81;4990489;28;20117;-96
2023/08/21 11:53:23;;;;;;;1.42;1.13;;;;;;;37.66;21.75;99531.59;4967151;28;20050;-95
2023/08/21 11:55:48;;;;;;;1.52;0.98;;;;;;;38.04;21.72;99572.44;4965268;28;20038;-93
2023/08/21 11:58:31;;;;;;;1.85;1.25;;;;;;;38.18;20.25;99536.75;4957318;28;20041;-94
2023/08/21 12:01:09;;;;;;;1.58;0.98;;;;;;;38.47;20.47;99565.84;4983242;28;20022;-93
2023/08/21 12:03:40;;;;;;;3.92;1.83;;;;;;;38.85;19.99;99576.31;4993325;28;20130;-91
2023/08/21 12:06:10;;;;;;;1.48;0.93;;;;;;;39.21;20.22;99553.03;4959504;28;20413;-94
2023/08/21 12:08:36;;;;;;;2.85;1.05;;;;;;;39.18;19.18;99565.31;4956242;28;20138;-93
2023/08/21 12:11:02;;;;;;;1.65;1.27;;;;;;;38.36;19.55;99559.03;4956250;28;20045;-90
2023/08/21 12:13:27;;;;;;;2.85;1.65;;;;;;;37.96;20.18;99550.63;4955399;28;20417;-89
2023/08/21 12:15:53;;;;;;;1.95;1.27;;;;;;;37.54;19.90;99555.22;4973082;28;20027;-91
2023/08/21 12:18:18;;;;;;;1.80;1.23;;;;;;;37.53;20.49;99554.38;4973187;28;20042;-91
2023/08/21 12:20:44;;;;;;;2.38;1.23;;;;;;;37.47;20.50;99562.59;4973493;28;20472;-94
2023/08/21 12:23:15;;;;;;;2.40;1.60;;;;;;;37.47;20.90;99560.69;4958289;28;20031;-94
2023/08/21 12:25:41;;;;;;;1.23;0.95;;;;;;;37.32;20.89;99536.03;4957230;28;20026;-95
2023/08/21 12:28:08;;;;;;;2.83;1.83;;;;;;;37.12;20.52;99522.13;4956393;28;20037;-94
2023/08/21 12:30:34;;;;;;;3.60;1.00;;;;;;;37.69;20.57;99560.59;4973864;28;20569;-96
2023/08/21 12:32:59;;;;;;;2.95;1.58;;;;;;;37.91;20.16;99520.09;4958322;28;20058;-95